createdAt,value
2022-10-11T00:02:59.196Z,8.45
2022-10-11T00:06:03.788Z,8.20
2022-10-11T00:09:07.508Z,8.70
2022-10-11T00:15:16.107Z,8.88
2022-10-11T00:18:18.822Z,9.75
2022-10-11T00:21:21.837Z,8.57
2022-10-11T00:24:24.555Z,9.35
2022-10-11T00:27:27.470Z,9.75
2022-10-11T00:30:30.208Z,15.02
2022-10-11T00:33:32.811Z,24.45
2022-10-11T00:36:35.842Z,16.92
2022-10-11T00:39:38.524Z,11.90
2022-10-11T00:42:41.333Z,13.40
2022-10-11T00:46:02.517Z,14.68
2022-10-11T00:49:21.591Z,11.18
2022-10-11T00:52:33.847Z,9.70
2022-10-11T00:55:51.174Z,9.52
2022-10-11T00:58:55.815Z,8.73
2022-10-11T01:01:58.685Z,9.00
2022-10-11T01:08:25.745Z,8.07
2022-10-11T01:11:32.160Z,8.70
2022-10-11T01:14:59.615Z,8.38
2022-10-11T01:18:10.722Z,8.18
2022-10-11T01:21:22.863Z,8.60
2022-10-11T01:24:34.231Z,8.32
2022-10-11T01:28:04.873Z,8.93
2022-10-11T01:31:36.055Z,8.75
2022-10-11T01:34:58.612Z,8.20
2022-10-11T01:38:52.945Z,8.52
2022-10-11T01:45:00.608Z,8.45
2022-10-11T01:48:03.322Z,8.65
2022-10-11T01:51:06.855Z,8.23
2022-10-11T01:55:08.732Z,8.60
2022-10-11T01:58:25.037Z,8.45
2022-10-11T02:01:52.442Z,9.07
2022-10-11T02:05:06.156Z,8.98
2022-10-11T02:09:04.507Z,9.07
2022-10-11T02:12:13.288Z,8.52
2022-10-11T02:15:17.520Z,8.95
2022-10-11T02:18:25.672Z,8.88
2022-10-11T02:21:29.778Z,9.43
2022-10-11T02:24:35.228Z,9.20
2022-10-11T02:27:40.666Z,8.80
2022-10-11T02:30:47.117Z,8.52
2022-10-11T02:34:08.283Z,8.70
2022-10-11T02:37:23.118Z,9.07
2022-10-11T02:40:32.090Z,8.65
2022-10-11T02:43:43.552Z,9.23
2022-10-11T02:46:47.423Z,9.00
2022-10-11T02:49:50.610Z,8.82
2022-10-11T02:52:53.168Z,9.35
2022-10-11T02:55:56.237Z,9.68
2022-10-11T02:58:58.739Z,9.13
2022-10-11T03:02:01.829Z,9.27
2022-10-11T03:05:04.609Z,8.53
2022-10-11T03:08:10.011Z,9.13
2022-10-11T03:11:12.421Z,8.98
2022-10-11T03:14:15.348Z,9.38
2022-10-11T03:17:35.553Z,9.60
2022-10-11T03:20:39.298Z,8.73
2022-10-11T03:23:42.770Z,8.30
2022-10-11T03:26:45.749Z,8.77
2022-10-11T03:29:48.259Z,9.60
2022-10-11T03:32:51.212Z,7.82
2022-10-11T03:35:54.937Z,8.50
2022-10-11T03:38:59.325Z,8.40
2022-10-11T03:42:01.777Z,8.05
2022-10-11T03:45:08.182Z,8.35
2022-10-11T03:48:10.732Z,8.00
2022-10-11T03:51:15.020Z,8.15
2022-10-11T03:54:17.488Z,8.20
2022-10-11T03:57:20.438Z,8.27
2022-10-11T04:00:23.039Z,9.13
2022-10-11T04:03:26.317Z,8.02
2022-10-11T04:06:28.732Z,8.43
2022-10-11T04:09:31.970Z,8.85
2022-10-11T04:12:34.855Z,8.90
2022-10-11T04:18:41.284Z,8.20
2022-10-11T04:21:44.255Z,8.27
2022-10-11T04:24:46.695Z,8.40
2022-10-11T04:27:52.165Z,8.10
2022-10-11T04:30:54.582Z,7.77
2022-10-11T04:33:57.559Z,7.78
2022-10-11T04:37:00.000Z,7.80
2022-10-11T04:40:04.655Z,7.93
2022-10-11T04:43:07.221Z,8.60
2022-10-11T04:46:10.713Z,8.30
2022-10-11T04:49:14.316Z,8.13
2022-10-11T04:52:18.185Z,8.07
2022-10-11T04:55:22.608Z,8.25
2022-10-11T04:58:26.017Z,7.68
2022-10-11T05:01:28.593Z,8.80
2022-10-11T05:04:31.581Z,8.55
2022-10-11T05:07:34.085Z,8.52
2022-10-11T05:10:37.089Z,8.85
2022-10-11T05:13:39.585Z,9.20
2022-10-11T05:16:42.722Z,8.27
2022-10-11T05:19:45.181Z,9.33
2022-10-11T05:22:48.181Z,9.15
2022-10-11T05:26:09.458Z,8.50
2022-10-11T05:29:13.129Z,9.32
2022-10-11T05:32:15.550Z,8.80
2022-10-11T05:35:18.933Z,8.90
2022-10-11T05:38:21.692Z,9.10
2022-10-11T05:44:27.238Z,9.02
2022-10-11T05:47:30.962Z,8.38
2022-10-11T05:50:33.922Z,8.73
2022-10-11T05:53:37.919Z,8.90
2022-10-11T05:56:40.595Z,9.15
2022-10-11T05:59:43.630Z,9.60
2022-10-11T06:02:46.077Z,9.80
2022-10-11T06:05:52.121Z,13.93
2022-10-11T06:08:57.017Z,15.15
2022-10-11T06:12:00.255Z,11.15
2022-10-11T06:15:04.523Z,9.82
2022-10-11T06:18:07.629Z,9.95
2022-10-11T06:21:10.256Z,9.07
2022-10-11T06:24:13.209Z,8.52
2022-10-11T06:27:15.693Z,9.02
2022-10-11T06:30:18.841Z,8.73
2022-10-11T06:33:21.760Z,8.95
2022-10-11T06:36:25.042Z,7.75
2022-10-11T06:39:27.567Z,7.70
2022-10-11T06:42:30.448Z,6.93
2022-10-11T06:45:33.081Z,7.17
2022-10-11T06:51:42.953Z,7.72
2022-10-11T06:54:46.750Z,6.60
2022-10-11T06:57:50.156Z,6.43
2022-10-11T07:03:57.288Z,7.60
2022-10-11T07:07:00.487Z,7.55
2022-10-11T07:10:04.885Z,6.97
2022-10-11T07:13:07.814Z,17.55
2022-10-11T07:16:12.689Z,13.93
2022-10-11T07:19:16.715Z,9.48
2022-10-11T07:22:19.344Z,7.15
2022-10-11T07:25:22.280Z,7.50
2022-10-11T07:28:25.527Z,6.50
2022-10-11T07:31:28.593Z,6.28
2022-10-11T07:34:31.040Z,6.22
2022-10-11T07:40:42.785Z,6.82
2022-10-11T07:43:47.875Z,6.20
2022-10-11T07:46:50.310Z,6.37
2022-10-11T07:49:53.262Z,6.57
2022-10-11T07:52:55.693Z,7.35
2022-10-11T07:56:02.571Z,7.15
2022-10-11T07:59:05.231Z,6.65
2022-10-11T08:02:13.241Z,7.15
2022-10-11T08:05:16.264Z,6.57
2022-10-11T08:08:19.508Z,7.18
2022-10-11T08:11:30.718Z,7.25
2022-10-11T08:14:33.318Z,6.32
2022-10-11T08:17:36.034Z,6.68
2022-10-11T08:20:39.963Z,5.97
2022-10-11T08:23:42.735Z,6.28
2022-10-11T08:26:45.332Z,14.65
2022-10-11T08:29:48.169Z,6.43
2022-10-11T08:32:50.778Z,5.85
2022-10-11T08:35:55.077Z,6.50
2022-10-11T08:38:58.290Z,6.12
2022-10-11T08:42:06.808Z,6.72
2022-10-11T08:45:19.059Z,6.35
2022-10-11T08:48:30.767Z,6.85
2022-10-11T08:51:50.548Z,7.40
2022-10-11T08:55:01.660Z,7.85
2022-10-11T08:58:04.524Z,9.77
2022-10-11T09:01:17.870Z,8.57
2022-10-11T09:04:21.542Z,8.90
2022-10-11T09:07:55.279Z,9.05
2022-10-11T09:11:13.983Z,8.77
2022-10-11T09:14:38.321Z,8.82
2022-10-11T09:17:47.052Z,9.35
2022-10-11T09:20:59.531Z,9.50
2022-10-11T09:24:11.652Z,9.75
2022-10-11T09:27:57.212Z,10.88
2022-10-11T09:30:55.523Z,10.95
2022-10-11T09:34:06.440Z,10.93
2022-10-11T09:37:29.911Z,10.73
2022-10-11T09:40:45.296Z,37.08
2022-10-11T09:43:51.089Z,13.05
2022-10-11T09:46:55.074Z,11.43
2022-10-11T09:50:03.009Z,9.95
2022-10-11T09:53:07.638Z,11.55
2022-10-11T09:56:10.415Z,11.45
2022-10-11T09:59:21.262Z,10.20
2022-10-11T10:02:27.119Z,9.77
2022-10-11T10:05:39.403Z,11.07
2022-10-11T10:08:45.480Z,10.25
2022-10-11T10:11:48.482Z,17.60
2022-10-11T10:15:06.948Z,11.70
2022-10-11T10:18:23.660Z,10.52
2022-10-11T10:21:38.398Z,10.85
2022-10-11T10:24:42.741Z,9.75
2022-10-11T10:28:00.382Z,10.95
2022-10-11T10:31:03.698Z,9.45
2022-10-11T10:34:17.018Z,11.12
2022-10-11T10:37:25.805Z,11.70
2022-10-11T10:40:37.795Z,9.88
2022-10-11T10:43:43.052Z,11.77
2022-10-11T10:46:54.795Z,11.25
2022-10-11T10:50:07.193Z,10.93
2022-10-11T10:53:24.526Z,10.65
2022-10-11T10:56:51.137Z,10.82
2022-10-11T11:00:12.652Z,12.10
2022-10-11T11:03:33.008Z,11.52
2022-10-11T11:06:50.814Z,11.50
2022-10-11T11:10:03.640Z,11.27
2022-10-11T11:17:01.799Z,12.07
2022-10-11T11:20:20.352Z,11.90
2022-10-11T11:23:37.372Z,10.35
2022-10-11T11:26:45.903Z,12.90
2022-10-11T11:30:08.210Z,11.43
2022-10-11T11:33:32.221Z,11.38
2022-10-11T11:36:49.193Z,11.63
2022-10-11T11:39:57.664Z,12.60
2022-10-11T11:43:21.951Z,11.60
2022-10-11T11:46:34.164Z,13.05
2022-10-11T11:49:41.463Z,12.65
2022-10-11T11:52:47.224Z,11.52
2022-10-11T11:56:09.712Z,11.90
2022-10-11T11:59:35.718Z,12.93
2022-10-11T12:02:47.760Z,11.38
2022-10-11T12:06:12.504Z,12.25
2022-10-11T12:09:17.867Z,12.65
2022-10-11T12:12:34.155Z,11.40
2022-10-11T12:15:37.719Z,12.68
2022-10-11T12:19:14.282Z,11.93
2022-10-11T12:22:55.469Z,11.85
2022-10-11T12:26:30.840Z,12.95
2022-10-11T12:29:48.661Z,12.00
2022-10-11T12:33:02.802Z,12.02
2022-10-11T12:36:36.580Z,12.15
2022-10-11T12:39:44.746Z,12.35
2022-10-11T12:43:26.881Z,12.90
2022-10-11T12:46:29.799Z,11.77
2022-10-11T12:49:38.416Z,12.93
2022-10-11T12:53:00.955Z,12.93
2022-10-11T12:56:36.946Z,12.77
2022-10-11T12:59:46.776Z,12.37
2022-10-11T13:02:50.128Z,13.10
2022-10-11T13:06:01.321Z,17.98
2022-10-11T13:09:04.211Z,15.27
2022-10-11T13:12:17.852Z,13.23
2022-10-11T13:15:22.721Z,13.40
2022-10-11T13:18:28.717Z,13.07
2022-10-11T13:21:36.355Z,13.30
2022-10-11T13:24:41.001Z,12.77
2022-10-11T13:27:43.962Z,13.75
2022-10-11T13:30:50.162Z,13.18
2022-10-11T13:33:56.106Z,13.77
2022-10-11T13:37:00.232Z,13.32
2022-10-11T13:40:02.907Z,13.90
2022-10-11T13:43:08.326Z,13.40
2022-10-11T13:46:19.957Z,11.85
2022-10-11T13:49:40.090Z,13.13
2022-10-11T13:53:01.428Z,13.20
2022-10-11T13:56:08.212Z,13.00
2022-10-11T13:59:23.748Z,12.65
2022-10-11T14:02:29.900Z,12.37
2022-10-11T14:05:37.534Z,13.48
2022-10-11T14:08:56.981Z,12.63
2022-10-11T14:12:32.879Z,12.70
2022-10-11T14:15:38.096Z,13.10
2022-10-11T14:18:50.876Z,14.25
2022-10-11T14:21:53.926Z,13.18
2022-10-11T14:24:56.794Z,13.48
2022-10-11T14:31:02.737Z,13.25
2022-10-11T14:34:06.117Z,12.50
2022-10-11T14:37:10.595Z,13.43
2022-10-11T14:40:19.608Z,13.48
2022-10-11T14:43:22.402Z,12.93
2022-10-11T14:46:27.096Z,13.15
2022-10-11T14:49:32.271Z,12.98
2022-10-11T14:52:34.956Z,12.52
2022-10-11T14:58:43.395Z,13.98
2022-10-11T15:01:53.645Z,13.62
2022-10-11T15:04:56.499Z,13.95
2022-10-11T15:11:04.966Z,14.95
2022-10-11T15:14:08.001Z,14.70
2022-10-11T15:17:13.617Z,13.65
2022-10-11T15:23:42.323Z,14.57
2022-10-11T15:29:51.803Z,14.13
2022-10-11T15:32:55.064Z,13.62
2022-10-11T15:35:57.779Z,14.85
2022-10-11T15:42:04.541Z,13.77
2022-10-11T15:48:19.012Z,15.80
2022-10-11T15:51:24.117Z,15.10
2022-10-11T15:54:26.815Z,15.13
2022-10-11T15:57:29.572Z,14.48
2022-10-11T16:03:36.032Z,14.00
2022-10-11T16:06:41.013Z,14.93
2022-10-11T16:09:43.735Z,14.27
2022-10-11T16:12:46.659Z,14.40
2022-10-11T16:18:53.065Z,14.32
2022-10-11T16:21:55.773Z,16.40
2022-10-11T16:24:58.524Z,15.32
2022-10-11T16:28:02.554Z,15.20
2022-10-11T16:31:10.718Z,16.27
2022-10-11T16:34:13.474Z,15.63
2022-10-11T16:37:16.426Z,16.42
2022-10-11T16:40:20.585Z,16.12
2022-10-11T16:43:23.298Z,16.92
2022-10-11T16:46:26.242Z,16.98
2022-10-11T16:49:29.680Z,15.80
2022-10-11T16:52:32.830Z,16.30
2022-10-11T16:55:35.876Z,17.48
2022-10-11T16:58:38.750Z,17.50
2022-10-11T17:01:41.470Z,17.35
2022-10-11T17:04:45.833Z,16.05
2022-10-11T17:07:48.504Z,19.10
2022-10-11T17:10:57.692Z,18.60
2022-10-11T17:14:02.119Z,17.67
2022-10-11T17:17:05.460Z,17.70
2022-10-11T17:20:08.229Z,18.65
2022-10-11T17:23:11.117Z,17.50
2022-10-11T17:26:18.137Z,17.90
2022-10-11T17:29:22.023Z,17.77
2022-10-11T17:32:24.739Z,17.55
2022-10-11T17:35:30.225Z,17.92
2022-10-11T17:38:34.864Z,20.80
2022-10-11T17:41:38.111Z,20.75
2022-10-11T17:44:43.668Z,21.30
2022-10-11T17:47:46.511Z,20.37
2022-10-11T17:50:50.738Z,19.80
2022-10-11T17:53:54.347Z,19.83
2022-10-11T17:56:57.106Z,18.87
2022-10-11T17:59:59.847Z,18.42
2022-10-11T18:03:02.687Z,17.80
2022-10-11T18:09:09.511Z,17.87
2022-10-11T18:12:12.297Z,17.12
2022-10-11T18:15:15.527Z,17.58
2022-10-11T18:18:18.463Z,16.23
2022-10-11T18:21:21.089Z,18.40
2022-10-11T18:24:23.899Z,18.65
2022-10-11T18:27:27.980Z,19.40
2022-10-11T18:30:30.764Z,18.42
2022-10-11T18:33:34.976Z,18.25
2022-10-11T18:36:38.333Z,18.80
2022-10-11T18:39:41.226Z,18.23
2022-10-11T18:42:44.296Z,17.58
2022-10-11T18:45:46.921Z,19.33
2022-10-11T18:48:51.975Z,17.25
2022-10-11T18:51:54.739Z,17.52
2022-10-11T18:54:58.533Z,16.60
2022-10-11T18:58:03.522Z,16.87
2022-10-11T19:01:18.384Z,16.90
2022-10-11T19:04:23.832Z,16.30
2022-10-11T19:07:26.829Z,16.17
2022-10-11T19:10:29.768Z,16.30
2022-10-11T19:16:40.511Z,16.02
2022-10-11T19:19:43.345Z,16.83
2022-10-11T19:22:46.261Z,18.35
2022-10-11T19:25:50.437Z,17.12
2022-10-11T19:29:01.591Z,18.25
2022-10-11T19:32:07.474Z,17.25
2022-10-11T19:35:19.845Z,19.73
2022-10-11T19:38:22.987Z,19.92
2022-10-11T19:41:27.899Z,20.48
2022-10-11T19:44:38.802Z,18.75
2022-10-11T19:47:45.198Z,20.15
2022-10-11T19:50:48.713Z,18.60
2022-10-11T19:54:02.325Z,18.30
2022-10-11T19:57:05.388Z,18.35
2022-10-11T20:00:11.210Z,17.15
2022-10-11T20:03:15.222Z,18.15
2022-10-11T20:06:21.142Z,18.15
2022-10-11T20:09:29.962Z,18.55
2022-10-11T20:12:34.037Z,19.55
2022-10-11T20:15:40.926Z,18.52
2022-10-11T20:18:44.648Z,17.25
2022-10-11T20:21:47.816Z,17.23
2022-10-11T20:24:51.500Z,18.90
2022-10-11T20:27:59.342Z,18.25
2022-10-11T20:31:05.836Z,17.08
2022-10-11T20:34:09.679Z,17.70
2022-10-11T20:37:12.319Z,18.05
2022-10-11T20:40:15.361Z,17.60
2022-10-11T20:43:21.167Z,18.70
2022-10-11T20:46:26.840Z,18.92
2022-10-11T20:49:29.750Z,18.55
2022-10-11T20:52:37.085Z,19.70
2022-10-11T20:55:39.841Z,19.75
2022-10-11T20:58:46.160Z,18.35
2022-10-11T21:01:53.134Z,19.15
2022-10-11T21:04:55.907Z,18.65
2022-10-11T21:08:00.117Z,19.60
2022-10-11T21:11:05.401Z,19.05
2022-10-11T21:14:08.147Z,18.17
2022-10-11T21:17:10.963Z,20.10
2022-10-11T21:20:15.242Z,18.75
2022-10-11T21:23:19.072Z,18.15
2022-10-11T21:26:22.152Z,18.48
2022-10-11T21:32:27.497Z,16.65
2022-10-11T21:35:31.141Z,17.83
2022-10-11T21:38:35.986Z,16.33
2022-10-11T21:41:38.773Z,18.17
2022-10-11T21:44:43.432Z,17.85
2022-10-11T21:47:46.414Z,17.45
2022-10-11T21:50:53.984Z,18.48
2022-10-11T21:54:00.230Z,18.92
2022-10-11T21:57:03.386Z,18.33
2022-10-11T22:03:15.814Z,19.17
2022-10-11T22:06:18.704Z,18.85
2022-10-11T22:09:21.380Z,19.25
2022-10-11T22:12:24.768Z,18.17
2022-10-11T22:15:27.408Z,18.75
2022-10-11T22:18:33.414Z,19.37
2022-10-11T22:21:39.093Z,19.50
2022-10-11T22:24:44.298Z,20.37
2022-10-11T22:27:46.972Z,19.35
2022-10-11T22:30:49.703Z,18.98
2022-10-11T22:33:57.559Z,19.80
2022-10-11T22:37:00.325Z,19.37
2022-10-11T22:40:03.094Z,19.27
2022-10-11T22:43:05.760Z,18.65
2022-10-11T22:46:08.525Z,19.37
2022-10-11T22:49:11.222Z,19.60
2022-10-11T22:52:13.887Z,19.05
2022-10-11T22:55:20.085Z,18.50
2022-10-11T22:58:22.933Z,19.00
2022-10-11T23:01:25.647Z,17.42
2022-10-11T23:04:29.421Z,18.23
2022-10-11T23:07:32.169Z,17.95
2022-10-11T23:10:40.003Z,18.10
2022-10-11T23:13:48.569Z,18.08
2022-10-11T23:16:52.468Z,17.95
2022-10-11T23:19:55.399Z,17.42
2022-10-11T23:22:58.165Z,17.10
2022-10-11T23:26:10.515Z,17.40
2022-10-11T23:29:13.396Z,16.92
2022-10-11T23:32:16.118Z,16.55
2022-10-11T23:35:18.742Z,16.45
2022-10-11T23:38:21.495Z,16.35
2022-10-11T23:41:26.648Z,17.92
2022-10-11T23:44:29.337Z,17.17
2022-10-11T23:47:31.987Z,16.80
2022-10-11T23:50:34.764Z,17.42
2022-10-11T23:53:37.725Z,18.87
2022-10-11T23:56:40.417Z,18.42
2022-10-11T23:59:43.223Z,18.17
